createdAt,value
2023-01-31T00:53:01.742Z,31.82
2023-01-31T01:09:02.268Z,31.72
2023-01-31T01:18:01.559Z,31.71
2023-01-31T01:19:01.493Z,31.70
2023-01-31T01:20:01.581Z,31.70
2023-01-31T01:21:01.524Z,31.68
2023-01-31T01:22:01.564Z,31.66
2023-01-31T01:23:01.588Z,31.66
2023-01-31T01:24:01.585Z,31.63
2023-01-31T01:25:01.632Z,31.66
2023-01-31T01:26:01.627Z,31.62
2023-01-31T01:27:01.659Z,31.61
2023-01-31T01:28:01.668Z,31.60
2023-01-31T01:29:01.756Z,31.64
2023-01-31T01:30:01.718Z,31.63
2023-01-31T01:31:01.876Z,31.62
2023-01-31T01:32:01.855Z,31.57
2023-01-31T01:33:01.776Z,31.57
2023-01-31T01:34:01.804Z,31.56
2023-01-31T01:35:01.819Z,31.52
2023-01-31T01:36:01.849Z,31.51
2023-01-31T01:37:01.873Z,31.54
2023-01-31T01:38:01.897Z,31.53
2023-01-31T01:39:01.922Z,31.52
2023-01-31T01:40:01.949Z,31.51
2023-01-31T01:41:01.967Z,31.54
2023-01-31T01:42:02.049Z,31.52
2023-01-31T01:43:02.002Z,31.51
2023-01-31T01:44:02.051Z,31.50
2023-01-31T01:45:02.052Z,31.49
2023-01-31T01:46:02.206Z,31.50
2023-01-31T01:47:02.098Z,31.51
2023-01-31T01:48:02.127Z,31.50
2023-01-31T01:49:02.136Z,31.48
2023-01-31T01:50:02.166Z,31.49
2023-01-31T01:51:02.188Z,31.47
2023-01-31T01:52:02.253Z,31.46
2023-01-31T01:53:02.216Z,31.44
2023-01-31T01:54:02.233Z,31.42
2023-01-31T01:55:02.270Z,31.46
2023-01-31T01:56:02.299Z,31.44
2023-01-31T01:57:02.309Z,31.40
2023-01-31T01:58:02.330Z,31.43
2023-01-31T01:59:02.355Z,31.39
2023-01-31T02:00:02.404Z,31.39
2023-01-31T02:01:02.464Z,31.40
2023-01-31T02:02:02.476Z,31.39
2023-01-31T02:03:02.450Z,31.36
2023-01-31T02:04:02.463Z,31.36
2023-01-31T02:06:02.499Z,31.33
2023-01-31T02:07:02.532Z,31.35
2023-01-31T02:08:02.572Z,31.32
2023-01-31T02:09:02.574Z,31.34
2023-01-31T02:10:02.609Z,31.32
2023-01-31T02:11:02.618Z,31.32
2023-01-31T02:12:02.659Z,31.31
2023-01-31T02:13:02.675Z,31.32
2023-01-31T02:14:02.699Z,31.27
2023-01-31T02:15:02.743Z,31.27
2023-01-31T02:16:02.751Z,31.28
2023-01-31T02:17:02.770Z,31.27
2023-01-31T02:18:02.784Z,31.26
2023-01-31T02:19:02.812Z,31.25
2023-01-31T02:20:02.847Z,31.25
2023-01-31T02:21:02.845Z,31.24
2023-01-31T02:24:02.916Z,31.22
2023-01-31T02:25:02.951Z,31.20
2023-01-31T02:27:02.984Z,31.19
2023-01-31T03:59:05.307Z,30.48
2023-01-31T04:01:05.077Z,30.47
2023-01-31T04:02:05.090Z,30.46
2023-01-31T04:03:05.128Z,30.43
2023-01-31T04:04:05.091Z,30.44
2023-01-31T04:06:05.150Z,30.43
2023-01-31T04:07:05.132Z,30.41
2023-01-31T04:08:05.123Z,30.42
2023-01-31T04:09:05.160Z,30.40
2023-01-31T04:10:05.213Z,30.38
2023-01-31T04:11:05.263Z,30.37
2023-01-31T04:12:05.323Z,30.37
2023-01-31T04:13:05.358Z,30.36
2023-01-31T04:14:05.413Z,30.36
2023-01-31T04:15:05.473Z,30.34
2023-01-31T04:16:05.600Z,30.38
2023-01-31T04:17:05.564Z,30.37
2023-01-31T04:18:05.619Z,30.32
2023-01-31T04:19:05.657Z,30.31
2023-01-31T04:20:05.697Z,30.30
2023-01-31T04:21:05.743Z,30.29
2023-01-31T04:22:05.805Z,30.29
2023-01-31T04:23:05.861Z,30.27
2023-01-31T04:24:05.925Z,30.25
2023-01-31T04:25:06.026Z,30.26
2023-01-31T04:26:06.006Z,30.25
2023-01-31T04:27:06.073Z,30.25
2023-01-31T04:28:06.133Z,30.25
2023-01-31T04:30:06.260Z,30.21
2023-01-31T04:31:06.402Z,30.18
2023-01-31T04:32:06.382Z,30.18
2023-01-31T04:34:06.482Z,30.16
2023-01-31T04:35:06.542Z,30.15
2023-01-31T04:36:07.396Z,30.14
2023-01-31T04:37:06.655Z,30.11
2023-01-31T04:38:06.727Z,30.13
2023-01-31T04:39:06.788Z,30.11
2023-01-31T04:40:06.829Z,30.09
2023-01-31T04:41:06.889Z,30.08
2023-01-31T04:42:06.954Z,30.07
2023-01-31T04:43:07.015Z,30.07
2023-01-31T04:44:07.064Z,30.05
2023-01-31T04:45:07.114Z,30.01
2023-01-31T04:46:07.183Z,29.99
2023-01-31T04:47:07.750Z,30.01
2023-01-31T04:48:07.776Z,30.00
2023-01-31T04:49:07.687Z,29.98
2023-01-31T04:51:07.455Z,29.95
2023-01-31T04:52:07.507Z,29.93
2023-01-31T04:53:07.564Z,29.94
2023-01-31T04:54:08.059Z,29.90
2023-01-31T04:55:08.166Z,29.90
2023-01-31T04:56:08.081Z,29.88
2023-01-31T04:57:07.830Z,29.87
2023-01-31T05:53:11.849Z,29.39
2023-01-31T06:00:11.536Z,29.31
2023-01-31T06:01:11.507Z,29.33
2023-01-31T06:02:12.364Z,29.34
2023-01-31T06:03:11.611Z,29.30
2023-01-31T06:04:11.618Z,29.31
2023-01-31T06:05:12.389Z,29.31
2023-01-31T06:06:11.727Z,29.28
2023-01-31T06:07:11.798Z,29.30
2023-01-31T06:08:11.852Z,29.28
2023-01-31T06:09:11.919Z,29.28
2023-01-31T06:10:11.968Z,29.29
2023-01-31T06:11:12.034Z,29.30
2023-01-31T06:12:12.094Z,29.25
2023-01-31T06:13:12.156Z,29.26
2023-01-31T06:14:12.219Z,29.25
2023-01-31T06:15:12.283Z,29.24
2023-01-31T06:16:12.366Z,29.25
2023-01-31T06:17:12.357Z,29.28
2023-01-31T06:18:12.401Z,29.19
2023-01-31T06:19:12.457Z,29.14
2023-01-31T06:20:12.579Z,29.12
2023-01-31T06:21:12.526Z,29.10
2023-01-31T06:22:12.571Z,29.14
2023-01-31T06:23:12.570Z,29.13
2023-01-31T06:24:12.579Z,29.13
2023-01-31T06:25:12.643Z,29.27
2023-01-31T06:26:12.670Z,29.44
2023-01-31T06:27:12.621Z,29.66
2023-01-31T06:28:12.660Z,29.62
2023-01-31T06:29:12.662Z,29.62
2023-01-31T06:30:12.720Z,29.57
2023-01-31T06:31:12.823Z,29.54
2023-01-31T06:32:12.811Z,29.50
2023-01-31T06:33:12.883Z,29.51
2023-01-31T06:34:12.904Z,29.45
2023-01-31T06:35:13.018Z,29.43
2023-01-31T06:36:13.018Z,29.42
2023-01-31T06:37:13.066Z,29.42
2023-01-31T06:38:13.870Z,29.38
2023-01-31T06:39:13.153Z,29.38
2023-01-31T06:40:13.226Z,29.40
2023-01-31T06:41:13.291Z,29.36
2023-01-31T06:42:13.343Z,29.33
2023-01-31T06:43:13.874Z,29.33
2023-01-31T06:44:13.869Z,29.30
2023-01-31T06:45:13.517Z,29.31
2023-01-31T06:46:13.624Z,29.29
2023-01-31T06:47:13.644Z,29.30
2023-01-31T06:48:13.695Z,29.25
2023-01-31T06:49:13.777Z,29.25
2023-01-31T06:50:13.824Z,29.26
2023-01-31T06:51:13.901Z,29.25
2023-01-31T06:52:15.108Z,29.22
2023-01-31T06:53:13.988Z,29.22
2023-01-31T06:54:14.064Z,29.20
2023-01-31T06:55:14.105Z,29.20
2023-01-31T06:56:14.165Z,29.18
2023-01-31T06:57:14.797Z,29.19
2023-01-31T06:58:14.275Z,29.16
2023-01-31T07:01:14.519Z,29.13
2023-01-31T09:37:20.639Z,39.45
2023-01-31T09:38:20.638Z,39.56
2023-01-31T09:39:20.659Z,39.72
2023-01-31T09:40:20.667Z,39.90
2023-01-31T09:41:20.701Z,39.96
2023-01-31T09:42:20.752Z,40.10
2023-01-31T09:43:20.804Z,40.32
2023-01-31T09:44:20.855Z,40.44
2023-01-31T09:45:21.119Z,40.51
2023-01-31T09:46:20.987Z,40.67
2023-01-31T09:47:20.973Z,40.73
2023-01-31T09:48:21.947Z,40.83
2023-01-31T09:49:21.079Z,41.20
2023-01-31T09:50:21.121Z,41.24
2023-01-31T09:51:21.194Z,41.35
2023-01-31T09:52:21.227Z,41.48
2023-01-31T09:53:21.264Z,41.71
2023-01-31T09:54:21.396Z,41.86
2023-01-31T09:55:21.700Z,41.98
2023-01-31T09:56:21.403Z,42.00
2023-01-31T09:57:21.515Z,42.17
2023-01-31T09:58:21.500Z,42.30
2023-01-31T09:59:21.605Z,42.47
2023-01-31T10:00:21.596Z,42.43
2023-01-31T10:01:22.460Z,42.67
2023-01-31T10:02:21.694Z,42.74
2023-01-31T10:03:21.732Z,42.83
2023-01-31T10:04:21.772Z,42.95
2023-01-31T10:05:22.302Z,43.05
2023-01-31T10:06:21.879Z,43.23
2023-01-31T10:07:21.922Z,43.23
2023-01-31T10:08:21.978Z,43.43
2023-01-31T10:09:22.021Z,43.72
2023-01-31T10:10:22.156Z,43.69
2023-01-31T10:11:22.121Z,43.82
2023-01-31T10:12:22.176Z,44.00
2023-01-31T10:13:22.227Z,44.18
2023-01-31T10:14:22.280Z,44.36
2023-01-31T10:15:22.551Z,44.63
2023-01-31T10:16:22.347Z,44.51
2023-01-31T10:17:22.454Z,44.30
2023-01-31T10:18:22.419Z,41.36
2023-01-31T10:19:22.416Z,38.12
2023-01-31T10:20:22.935Z,36.61
2023-01-31T10:21:22.523Z,34.57
2023-01-31T10:22:22.531Z,34.08
2023-01-31T10:23:22.547Z,33.21
2023-01-31T10:24:22.565Z,32.43
2023-01-31T10:25:22.589Z,31.48
2023-01-31T10:26:22.671Z,30.52
2023-01-31T10:27:22.714Z,29.46
2023-01-31T10:28:23.441Z,29.48
2023-01-31T10:29:22.821Z,29.06
2023-01-31T10:30:24.047Z,29.75
2023-01-31T10:31:22.935Z,28.33
2023-01-31T10:32:23.936Z,27.79
2023-01-31T10:33:23.013Z,27.19
2023-01-31T10:34:23.049Z,25.90
2023-01-31T10:35:23.067Z,26.29
2023-01-31T10:36:23.072Z,25.39
2023-01-31T10:37:23.085Z,25.18
2023-01-31T10:38:23.107Z,24.72
2023-01-31T10:39:23.126Z,24.06
2023-01-31T10:40:23.620Z,23.99
2023-01-31T10:41:23.208Z,23.55
2023-01-31T10:42:23.253Z,23.25
2023-01-31T10:43:23.307Z,22.91
2023-01-31T10:44:23.383Z,22.74
2023-01-31T10:45:23.760Z,22.15
2023-01-31T10:46:23.488Z,22.24
2023-01-31T10:47:23.554Z,22.02
2023-01-31T10:48:23.648Z,22.21
2023-01-31T10:49:23.695Z,22.21
2023-01-31T10:50:24.044Z,21.51
2023-01-31T10:51:24.450Z,21.31
2023-01-31T10:52:23.929Z,21.32
2023-01-31T10:53:24.006Z,21.63
2023-01-31T10:54:24.106Z,21.69
2023-01-31T10:55:24.126Z,22.25
2023-01-31T10:56:24.181Z,22.54
2023-01-31T10:57:24.210Z,22.83
2023-01-31T10:58:24.226Z,22.95
2023-01-31T10:59:24.254Z,23.10
2023-01-31T11:00:24.499Z,23.28
2023-01-31T11:01:24.385Z,23.38
2023-01-31T11:02:24.434Z,23.46
2023-01-31T11:03:24.431Z,23.50
2023-01-31T11:04:24.494Z,23.69
2023-01-31T11:05:24.578Z,23.90
2023-01-31T11:06:24.639Z,24.03
2023-01-31T11:07:24.714Z,24.01
2023-01-31T11:08:24.771Z,23.69
2023-01-31T11:09:24.857Z,23.86
2023-01-31T11:10:24.961Z,25.57
2023-01-31T11:11:24.956Z,25.52
2023-01-31T11:12:25.014Z,25.38
2023-01-31T11:13:25.051Z,25.28
2023-01-31T11:14:25.076Z,25.29
2023-01-31T11:15:25.102Z,25.28
2023-01-31T11:16:25.144Z,25.27
2023-01-31T11:17:25.125Z,25.25
2023-01-31T11:18:25.134Z,25.25
2023-01-31T11:19:25.140Z,25.26
2023-01-31T11:20:25.138Z,25.23
2023-01-31T11:21:25.145Z,25.26
2023-01-31T11:22:25.161Z,25.25
2023-01-31T11:23:25.176Z,25.24
2023-01-31T11:24:25.191Z,25.24
2023-01-31T11:25:25.204Z,25.24
2023-01-31T11:26:25.325Z,25.25
2023-01-31T11:27:25.257Z,25.25
2023-01-31T11:28:25.260Z,25.26
2023-01-31T11:29:25.289Z,25.27
2023-01-31T11:30:25.338Z,25.32
2023-01-31T11:31:25.345Z,25.34
2023-01-31T11:32:25.332Z,25.35
2023-01-31T11:33:25.359Z,25.35
2023-01-31T11:34:25.356Z,25.39
2023-01-31T11:35:25.394Z,25.41
2023-01-31T11:36:25.442Z,25.44
2023-01-31T11:37:25.479Z,25.46
2023-01-31T11:38:25.510Z,25.46
2023-01-31T11:39:25.577Z,25.48
2023-01-31T11:40:25.608Z,25.51
2023-01-31T11:41:25.654Z,25.50
2023-01-31T11:42:25.692Z,25.53
2023-01-31T11:43:25.753Z,25.57
2023-01-31T11:44:25.811Z,25.58
2023-01-31T11:45:25.880Z,25.60
2023-01-31T11:46:25.988Z,25.63
2023-01-31T11:47:26.001Z,25.61
2023-01-31T11:48:26.039Z,25.67
2023-01-31T11:49:27.469Z,25.67
2023-01-31T11:50:28.068Z,25.71
2023-01-31T11:51:26.189Z,25.72
2023-01-31T11:52:26.229Z,25.72
2023-01-31T11:53:26.291Z,25.75
2023-01-31T11:54:26.378Z,25.75
2023-01-31T11:55:26.398Z,25.79
2023-01-31T11:56:26.449Z,25.79
2023-01-31T11:57:26.498Z,25.82
2023-01-31T11:58:26.548Z,25.84
2023-01-31T11:59:26.598Z,25.85
2023-01-31T12:00:26.644Z,25.86
2023-01-31T15:52:31.530Z,28.91
2023-01-31T15:53:33.179Z,28.88
2023-01-31T15:54:31.646Z,28.89
2023-01-31T15:55:31.715Z,28.88
2023-01-31T15:56:32.069Z,28.85
2023-01-31T15:57:31.860Z,28.88
2023-01-31T15:58:31.938Z,28.87
2023-01-31T15:59:31.957Z,28.84
2023-01-31T16:00:32.012Z,28.85
2023-01-31T16:01:32.069Z,28.82
2023-01-31T16:02:32.129Z,28.83
2023-01-31T16:03:32.153Z,28.81
2023-01-31T16:04:32.207Z,28.82
2023-01-31T16:05:32.795Z,28.81
2023-01-31T16:06:32.317Z,28.80
2023-01-31T16:07:32.384Z,28.77
2023-01-31T16:08:32.425Z,28.75
2023-01-31T16:09:32.516Z,28.75
2023-01-31T16:10:32.537Z,28.75
2023-01-31T16:11:33.839Z,28.75
2023-01-31T16:12:32.631Z,28.73
2023-01-31T16:13:32.662Z,28.72
2023-01-31T16:14:32.707Z,28.72
2023-01-31T16:15:32.749Z,28.73
2023-01-31T16:16:32.847Z,28.72
2023-01-31T16:17:32.824Z,28.72
2023-01-31T16:18:32.854Z,28.69
2023-01-31T16:19:32.921Z,28.72
2023-01-31T16:20:32.932Z,28.71
2023-01-31T16:21:32.968Z,28.71
2023-01-31T16:22:33.004Z,28.71
2023-01-31T16:23:33.047Z,28.70
2023-01-31T16:24:33.090Z,28.66
2023-01-31T16:25:33.109Z,28.69
2023-01-31T16:26:33.197Z,28.68
2023-01-31T16:27:33.185Z,28.64
2023-01-31T16:28:33.218Z,28.66
2023-01-31T16:29:33.300Z,28.65
2023-01-31T16:30:33.397Z,28.64
2023-01-31T16:31:33.403Z,28.61
2023-01-31T16:32:33.364Z,28.63
2023-01-31T16:33:33.384Z,28.63
2023-01-31T16:34:33.439Z,28.60
2023-01-31T16:35:33.456Z,28.59
2023-01-31T16:36:33.502Z,28.60
2023-01-31T16:37:33.562Z,28.60
2023-01-31T16:38:33.638Z,28.62
2023-01-31T16:39:33.707Z,28.61
2023-01-31T16:40:33.780Z,28.59
2023-01-31T16:41:33.850Z,28.59
2023-01-31T16:42:33.936Z,28.60
2023-01-31T16:43:34.027Z,28.58
2023-01-31T16:44:34.080Z,28.58
2023-01-31T16:45:34.153Z,28.57
2023-01-31T16:46:34.237Z,28.58
2023-01-31T16:47:34.295Z,28.56
2023-01-31T16:48:34.322Z,28.57
2023-01-31T16:49:34.387Z,28.56
2023-01-31T16:50:43.356Z,28.57
2023-01-31T16:51:36.433Z,28.58
2023-01-31T16:52:34.443Z,28.57
2023-01-31T16:53:34.446Z,28.57
2023-01-31T16:54:34.449Z,28.57
2023-01-31T16:55:34.458Z,28.59
2023-01-31T16:56:34.472Z,28.58
2023-01-31T16:57:37.451Z,28.55
2023-01-31T16:58:34.527Z,28.54
2023-01-31T16:59:34.540Z,28.55
2023-01-31T17:00:34.540Z,28.54
2023-01-31T17:01:34.600Z,28.55
2023-01-31T17:02:34.586Z,28.55
2023-01-31T17:03:36.265Z,28.54
2023-01-31T17:04:34.542Z,28.54
2023-01-31T17:05:34.546Z,28.51
2023-01-31T17:06:34.539Z,28.52
2023-01-31T17:07:34.553Z,28.51
2023-01-31T17:08:34.552Z,28.51
2023-01-31T17:09:34.592Z,28.52
2023-01-31T17:10:34.570Z,28.49
2023-01-31T17:11:42.652Z,28.49
2023-01-31T17:12:35.554Z,28.50
2023-01-31T17:13:34.548Z,28.51
2023-01-31T17:14:34.642Z,28.49
2023-01-31T17:15:34.567Z,28.47
2023-01-31T17:16:34.563Z,28.45
2023-01-31T17:17:34.683Z,28.46
2023-01-31T17:18:34.574Z,28.42
2023-01-31T17:19:34.562Z,28.38
2023-01-31T17:20:35.101Z,28.39
2023-01-31T17:21:34.583Z,28.38
2023-01-31T17:22:34.590Z,28.36
2023-01-31T17:23:34.620Z,28.35
2023-01-31T17:24:34.681Z,28.34
2023-01-31T17:25:34.725Z,28.34
2023-01-31T17:26:34.888Z,28.32
2023-01-31T17:27:34.851Z,28.34
2023-01-31T17:28:34.931Z,28.32
2023-01-31T17:29:34.907Z,28.32
2023-01-31T17:30:34.978Z,28.33
2023-01-31T17:31:35.140Z,28.32
2023-01-31T17:32:35.052Z,28.33
2023-01-31T17:33:35.115Z,28.32
2023-01-31T17:34:35.131Z,28.32
2023-01-31T17:35:35.171Z,28.31
2023-01-31T17:36:35.209Z,28.32
2023-01-31T17:37:35.253Z,28.30
2023-01-31T17:38:35.305Z,28.28
2023-01-31T17:39:35.334Z,28.29
2023-01-31T17:40:35.441Z,28.27
2023-01-31T17:41:35.422Z,28.27
2023-01-31T17:42:35.460Z,28.26
2023-01-31T17:43:35.495Z,28.28
2023-01-31T17:44:35.582Z,28.26
2023-01-31T17:45:35.590Z,28.26
2023-01-31T17:46:35.630Z,28.25
2023-01-31T17:47:35.688Z,28.24
2023-01-31T17:48:35.699Z,28.28
2023-01-31T17:49:35.844Z,28.25
2023-01-31T17:50:35.795Z,28.29
2023-01-31T17:51:35.957Z,28.27
2023-01-31T17:52:35.881Z,28.27
2023-01-31T17:53:44.058Z,28.27
2023-01-31T17:54:36.918Z,28.26
2023-01-31T17:55:35.908Z,28.26
2023-01-31T17:56:35.914Z,28.21
2023-01-31T17:57:35.914Z,28.22
2023-01-31T17:58:35.927Z,28.23
2023-01-31T17:59:35.932Z,28.20
2023-01-31T18:00:35.948Z,28.18
2023-01-31T18:01:36.001Z,28.17
2023-01-31T18:02:35.976Z,28.17
2023-01-31T18:03:35.956Z,28.14
2023-01-31T18:04:35.959Z,28.17
2023-01-31T18:05:39.108Z,28.17
2023-01-31T18:06:36.029Z,28.14
2023-01-31T18:07:35.995Z,28.16
2023-01-31T18:08:36.049Z,28.17
2023-01-31T18:09:35.998Z,28.18
2023-01-31T18:10:35.998Z,28.17
2023-01-31T18:11:35.994Z,28.17
2023-01-31T18:12:36.594Z,28.14
2023-01-31T18:13:35.994Z,28.14
2023-01-31T18:14:36.011Z,28.11
2023-01-31T18:15:36.011Z,28.14
2023-01-31T18:16:36.016Z,28.15
2023-01-31T18:17:36.027Z,28.12
2023-01-31T18:18:36.022Z,28.13
2023-01-31T18:19:36.078Z,28.13
2023-01-31T18:20:36.037Z,28.14
2023-01-31T18:21:38.905Z,28.13
2023-01-31T18:22:37.038Z,28.14
2023-01-31T18:23:36.038Z,28.12
2023-01-31T18:24:36.046Z,28.15
2023-01-31T18:25:36.076Z,28.15
2023-01-31T18:26:36.061Z,28.13
2023-01-31T18:27:36.052Z,28.15
2023-01-31T18:28:36.062Z,28.12
2023-01-31T18:29:36.068Z,28.12
2023-01-31T18:30:36.095Z,28.12
2023-01-31T18:31:36.155Z,28.10
2023-01-31T18:32:36.075Z,28.11
2023-01-31T18:33:36.121Z,28.11
2023-01-31T18:34:36.146Z,28.12
2023-01-31T18:35:36.192Z,28.12
2023-01-31T18:36:36.208Z,28.11
2023-01-31T18:37:36.246Z,28.10
2023-01-31T18:38:36.293Z,28.10
2023-01-31T18:39:36.351Z,28.11
2023-01-31T18:40:36.393Z,28.11
2023-01-31T18:41:36.422Z,28.12
2023-01-31T18:42:36.458Z,28.10
2023-01-31T18:43:36.476Z,28.08
2023-01-31T18:44:36.526Z,28.08
2023-01-31T18:45:36.563Z,28.10
2023-01-31T18:46:36.631Z,28.09
2023-01-31T18:47:36.656Z,28.10
2023-01-31T18:48:36.689Z,28.09
2023-01-31T18:49:36.794Z,28.10
2023-01-31T18:50:36.781Z,28.08
2023-01-31T18:51:36.829Z,28.11
2023-01-31T18:52:36.910Z,28.09
2023-01-31T18:53:36.917Z,28.08
2023-01-31T18:54:36.969Z,28.07
2023-01-31T18:55:36.996Z,28.07
2023-01-31T18:56:37.057Z,28.07
2023-01-31T18:57:37.116Z,28.06
2023-01-31T18:58:37.140Z,28.06
2023-01-31T18:59:37.186Z,28.06
2023-01-31T19:00:37.263Z,28.07
2023-01-31T19:01:37.292Z,28.07
2023-01-31T19:02:37.293Z,28.06
2023-01-31T19:03:37.628Z,28.08
2023-01-31T19:04:37.402Z,28.05
2023-01-31T19:05:37.456Z,28.06
2023-01-31T19:06:37.547Z,28.06
2023-01-31T19:07:37.556Z,28.08
2023-01-31T19:08:37.587Z,28.08
2023-01-31T19:09:37.661Z,28.10
2023-01-31T19:10:37.704Z,28.07
2023-01-31T19:11:37.758Z,28.08
2023-01-31T19:12:37.807Z,28.09
2023-01-31T19:13:37.854Z,28.08
2023-01-31T19:14:37.909Z,28.07
2023-01-31T19:15:37.929Z,28.08
2023-01-31T19:16:38.039Z,28.08
2023-01-31T19:17:38.023Z,28.07
2023-01-31T19:18:38.050Z,28.04
2023-01-31T19:19:38.088Z,28.05
2023-01-31T19:20:38.140Z,28.06
2023-01-31T21:11:41.671Z,27.55
2023-01-31T21:31:41.537Z,27.54
2023-01-31T21:32:41.528Z,27.56
2023-01-31T21:33:41.474Z,27.57
2023-01-31T21:34:41.497Z,27.53
2023-01-31T21:35:41.511Z,27.53
2023-01-31T21:36:41.518Z,27.52
2023-01-31T21:37:41.553Z,27.51
2023-01-31T21:38:41.569Z,27.51
2023-01-31T21:39:41.576Z,27.52
2023-01-31T21:40:41.599Z,27.53
2023-01-31T21:41:41.627Z,27.50
2023-01-31T21:42:42.999Z,27.52
2023-01-31T21:43:41.675Z,27.52
2023-01-31T21:44:41.661Z,27.52
2023-01-31T21:45:41.680Z,27.50
2023-01-31T21:46:41.725Z,27.51
2023-01-31T21:47:41.722Z,27.51
2023-01-31T21:48:41.847Z,27.52
2023-01-31T21:49:41.764Z,27.52
2023-01-31T21:50:41.779Z,27.51
2023-01-31T21:51:41.805Z,27.50
2023-01-31T21:52:41.833Z,27.49
2023-01-31T21:53:41.835Z,27.49
2023-01-31T21:54:41.854Z,27.48
2023-01-31T21:55:41.880Z,27.47
2023-01-31T21:56:41.887Z,27.47
2023-01-31T21:57:41.921Z,27.48
2023-01-31T21:58:41.935Z,27.48
2023-01-31T21:59:42.017Z,27.45
2023-01-31T22:00:41.977Z,27.46
2023-01-31T22:01:42.114Z,27.47
2023-01-31T22:02:42.072Z,27.45
2023-01-31T22:03:42.035Z,27.46
2023-01-31T22:04:42.053Z,27.46
2023-01-31T22:05:42.077Z,27.44
2023-01-31T22:06:42.080Z,27.45
2023-01-31T22:07:42.094Z,27.46
2023-01-31T22:08:42.117Z,27.44
2023-01-31T22:09:42.182Z,27.45
2023-01-31T22:10:42.155Z,27.45
2023-01-31T22:11:42.173Z,27.44
2023-01-31T22:12:42.189Z,27.47
2023-01-31T22:13:42.203Z,27.47
2023-01-31T22:14:42.220Z,27.47
2023-01-31T22:15:42.283Z,27.45
2023-01-31T22:16:43.199Z,27.44
2023-01-31T22:17:42.272Z,27.45
2023-01-31T22:18:42.296Z,27.45
2023-01-31T22:19:42.347Z,27.45
2023-01-31T22:20:42.329Z,27.47
2023-01-31T22:21:42.346Z,27.47
2023-01-31T22:22:42.364Z,27.45
2023-01-31T22:23:42.379Z,27.45
2023-01-31T22:24:42.696Z,27.49
2023-01-31T22:25:42.441Z,27.46
2023-01-31T22:26:42.475Z,27.46
2023-01-31T22:27:42.460Z,27.47
2023-01-31T22:28:42.471Z,27.47
2023-01-31T22:29:42.489Z,27.46
2023-01-31T22:30:42.516Z,27.47
2023-01-31T22:31:42.579Z,27.47
2023-01-31T22:32:42.546Z,27.46
2023-01-31T22:34:42.578Z,27.46
2023-01-31T22:35:42.589Z,27.47
2023-01-31T22:36:42.646Z,27.48
2023-01-31T22:37:42.617Z,27.48
2023-01-31T22:38:42.636Z,27.49
2023-01-31T22:39:42.649Z,27.48
2023-01-31T22:40:42.673Z,27.48
2023-01-31T22:42:42.692Z,27.47
2023-01-31T22:43:42.707Z,27.49
2023-01-31T22:44:42.715Z,27.49
2023-01-31T22:45:42.734Z,27.49
2023-01-31T22:46:42.808Z,27.51
2023-01-31T22:47:42.834Z,27.48
2023-01-31T22:48:42.797Z,27.48
2023-01-31T22:50:42.841Z,27.48
2023-01-31T22:51:42.855Z,27.48
2023-01-31T22:52:42.877Z,27.47
2023-01-31T22:53:42.882Z,27.46
2023-01-31T22:54:42.910Z,27.49
2023-01-31T23:54:44.001Z,27.57
